createdAt,value
2019-02-25T00:01:22.481Z,102663.56
2019-02-25T00:03:50.573Z,102660.07
2019-02-25T00:06:18.525Z,102659.61
2019-02-25T00:08:46.906Z,102647.73
2019-02-25T00:11:15.017Z,102645.99
2019-02-25T00:13:43.042Z,102641.61
2019-02-25T00:16:11.297Z,102635.44
2019-02-25T00:18:39.538Z,102626.23
2019-02-25T00:21:07.513Z,102628.44
2019-02-25T00:23:35.645Z,102618.74
2019-02-25T00:26:03.613Z,102619.64
2019-02-25T00:28:31.879Z,102614.36
2019-02-25T00:31:00.086Z,102620.95
2019-02-25T00:33:28.215Z,102623.17
2019-02-25T00:35:56.347Z,102625.34
2019-02-25T00:38:24.697Z,102619.64
2019-02-25T00:40:52.661Z,102631.09
2019-02-25T00:43:20.742Z,102633.28
2019-02-25T00:45:48.853Z,102628.47
2019-02-25T00:48:17.068Z,102625.38
2019-02-25T00:50:45.253Z,102631.97
2019-02-25T00:53:13.450Z,102630.64
2019-02-25T00:55:41.766Z,102635.92
2019-02-25T00:58:09.790Z,102636.38
2019-02-25T01:00:37.895Z,102635.06
2019-02-25T01:03:05.858Z,102634.18
2019-02-25T01:05:33.913Z,102639.45
2019-02-25T01:08:02.140Z,102640.78
2019-02-25T01:10:30.346Z,102635.08
2019-02-25T01:12:58.401Z,102634.63
2019-02-25T01:15:26.879Z,102631.13
2019-02-25T01:17:54.842Z,102623.22
2019-02-25T01:20:22.870Z,102621.02
2019-02-25T01:22:50.981Z,102621.02
2019-02-25T01:25:18.986Z,102620.59
2019-02-25T01:27:47.073Z,102612.69
2019-02-25T01:30:16.886Z,102611.80
2019-02-25T01:32:44.952Z,102607.84
2019-02-25T01:35:13.086Z,102604.78
2019-02-25T01:37:41.295Z,102597.30
2019-02-25T01:40:09.753Z,102598.63
2019-02-25T01:42:37.986Z,102603.02
2019-02-25T01:45:06.912Z,102598.63
2019-02-25T01:47:35.002Z,102589.84
2019-02-25T01:50:03.276Z,102599.06
2019-02-25T01:52:31.449Z,102590.73
2019-02-25T01:54:59.436Z,102586.78
2019-02-25T01:57:27.478Z,102590.30
2019-02-25T01:59:55.492Z,102584.14
2019-02-25T02:02:23.446Z,102581.52
2019-02-25T02:04:51.531Z,102579.31
2019-02-25T02:07:19.485Z,102576.24
2019-02-25T02:09:47.570Z,102566.13
2019-02-25T02:12:15.638Z,102569.66
2019-02-25T02:14:43.667Z,102570.08
2019-02-25T02:17:11.722Z,102571.86
2019-02-25T02:19:39.967Z,102574.04
2019-02-25T02:22:08.150Z,102580.62
2019-02-25T02:24:36.270Z,102578.89
2019-02-25T02:27:04.293Z,102583.27
2019-02-25T02:29:32.365Z,102578.89
2019-02-25T02:32:00.352Z,102584.16
2019-02-25T02:34:28.414Z,102592.95
2019-02-25T02:36:56.677Z,102586.80
2019-02-25T02:39:24.708Z,102542.49
2019-02-25T02:42:10.842Z,102604.81
2019-02-25T02:44:39.154Z,102602.18
2019-02-25T02:47:26.407Z,102608.31
2019-02-25T02:49:54.453Z,102604.81
2019-02-25T02:52:22.397Z,102604.81
2019-02-25T02:54:50.457Z,102596.02
2019-02-25T02:57:18.494Z,102593.39
2019-02-25T02:59:46.765Z,102590.33
2019-02-25T03:02:15.194Z,102589.44
2019-02-25T03:04:43.431Z,102591.64
2019-02-25T03:07:11.453Z,102592.97
2019-02-25T03:09:39.434Z,102596.91
2019-02-25T03:12:07.463Z,102599.55
2019-02-25T03:14:35.462Z,102596.91
2019-02-25T03:17:03.499Z,102597.34
2019-02-25T03:19:31.561Z,102599.98
2019-02-25T03:21:59.509Z,102597.80
2019-02-25T03:24:27.546Z,102605.25
2019-02-25T03:26:55.537Z,102591.65
2019-02-25T03:29:23.585Z,102590.76
2019-02-25T03:31:51.638Z,102595.60
2019-02-25T03:34:19.594Z,102597.34
2019-02-25T03:36:47.584Z,102595.17
2019-02-25T03:39:15.572Z,102593.39
2019-02-25T03:41:43.670Z,102596.48
2019-02-25T03:44:11.694Z,102603.50
2019-02-25T03:46:39.746Z,102601.76
2019-02-25T03:49:07.708Z,102602.19
2019-02-25T03:51:35.749Z,102603.07
2019-02-25T03:54:03.777Z,102606.56
2019-02-25T03:56:31.762Z,102612.72
2019-02-25T03:58:59.801Z,102616.24
2019-02-25T04:01:27.848Z,102621.05
2019-02-25T04:03:55.870Z,102622.36
2019-02-25T04:06:24.097Z,102625.00
2019-02-25T04:08:52.157Z,102617.98
2019-02-25T04:11:20.494Z,102614.92
2019-02-25T04:13:48.782Z,102611.39
2019-02-25T04:16:16.926Z,102610.94
2019-02-25T04:18:44.954Z,102606.52
2019-02-25T04:21:13.004Z,102608.73
2019-02-25T04:23:40.957Z,102607.41
2019-02-25T04:26:09.006Z,102604.34
2019-02-25T04:28:37.069Z,102609.15
2019-02-25T04:31:05.245Z,102610.93
2019-02-25T04:33:33.334Z,102610.93
2019-02-25T04:36:01.319Z,102613.55
2019-02-25T04:38:29.346Z,102619.68
2019-02-25T04:40:57.390Z,102617.94
2019-02-25T04:43:25.413Z,102625.41
2019-02-25T04:45:53.394Z,102618.36
2019-02-25T04:48:21.506Z,102616.61
2019-02-25T04:50:49.722Z,102621.88
2019-02-25T04:53:18.039Z,102619.25
2019-02-25T04:55:46.185Z,102610.46
2019-02-25T04:58:14.217Z,102616.62
2019-02-25T05:00:42.487Z,102613.55
2019-02-25T05:03:10.513Z,102613.55
2019-02-25T05:05:38.853Z,102610.47
2019-02-25T05:08:07.091Z,102622.78
2019-02-25T05:10:35.115Z,102618.36
2019-02-25T05:13:04.635Z,102615.30
2019-02-25T05:15:33.238Z,102617.05
2019-02-25T05:18:01.214Z,102610.93
2019-02-25T05:20:29.238Z,102614.88
2019-02-25T05:22:57.226Z,102612.67
2019-02-25T05:25:25.337Z,102610.05
2019-02-25T05:27:53.507Z,102613.56
2019-02-25T05:30:21.726Z,102613.11
2019-02-25T05:32:49.931Z,102611.79
2019-02-25T05:35:18.171Z,102610.94
2019-02-25T05:37:46.298Z,102618.41
2019-02-25T05:40:14.775Z,102619.30
2019-02-25T05:42:43.086Z,102626.31
2019-02-25T05:45:11.299Z,102626.77
2019-02-25T05:47:39.433Z,102622.36
2019-02-25T05:50:08.714Z,102626.31
2019-02-25T05:52:36.852Z,102621.94
2019-02-25T05:55:05.526Z,102621.94
2019-02-25T05:57:33.505Z,102614.03
2019-02-25T06:00:01.748Z,102611.40
2019-02-25T06:02:30.506Z,102614.92
2019-02-25T06:04:58.516Z,102612.72
2019-02-25T06:07:26.490Z,102609.20
2019-02-25T06:09:54.443Z,102614.92
2019-02-25T06:12:22.502Z,102609.66
2019-02-25T06:14:50.455Z,102612.30
2019-02-25T06:17:18.616Z,102613.61
2019-02-25T06:19:46.761Z,102612.72
2019-02-25T06:22:16.058Z,102606.13
2019-02-25T06:24:45.640Z,102604.39
2019-02-25T06:27:13.626Z,102602.61
2019-02-25T06:29:41.601Z,102613.15
2019-02-25T06:32:09.645Z,102617.56
2019-02-25T06:34:37.682Z,102610.52
2019-02-25T06:37:05.739Z,102612.72
2019-02-25T06:39:33.686Z,102611.83
2019-02-25T06:42:01.666Z,102615.36
2019-02-25T06:44:29.697Z,102615.34
2019-02-25T06:46:57.694Z,102618.83
2019-02-25T06:49:25.637Z,102616.65
2019-02-25T06:51:53.661Z,102621.91
2019-02-25T06:54:21.664Z,102627.17
2019-02-25T06:56:49.687Z,102632.87
2019-02-25T06:59:17.799Z,102629.33
2019-02-25T07:01:45.785Z,102631.53
2019-02-25T07:04:28.807Z,102639.43
2019-02-25T07:07:01.433Z,102639.00
2019-02-25T07:10:00.522Z,102633.70
2019-02-25T07:12:35.779Z,102633.69
2019-02-25T07:15:21.555Z,102632.78
2019-02-25T07:18:11.471Z,102638.48
2019-02-25T07:21:07.557Z,102639.79
2019-02-25T07:23:53.577Z,102641.56
2019-02-25T07:26:35.202Z,102650.30
2019-02-25T07:29:20.977Z,102653.81
2019-02-25T07:31:57.177Z,102654.68
2019-02-25T07:34:33.664Z,102658.16
2019-02-25T07:37:23.574Z,102662.98
2019-02-25T07:40:10.889Z,102669.56
2019-02-25T07:42:58.191Z,102664.30
2019-02-25T07:45:51.265Z,102666.49
2019-02-25T07:48:42.417Z,102670.84
2019-02-25T07:51:29.761Z,102667.76
2019-02-25T07:54:06.756Z,102674.77
2019-02-25T07:56:47.325Z,102673.01
2019-02-25T07:59:40.355Z,102678.70
2019-02-25T08:02:29.985Z,102680.00
2019-02-25T08:05:17.053Z,102685.26
2019-02-25T08:07:55.594Z,102685.66
2019-02-25T08:10:52.053Z,102686.52
2019-02-25T08:13:39.099Z,102682.97
2019-02-25T08:16:14.486Z,102686.88
2019-02-25T08:18:58.562Z,102679.37
2019-02-25T08:21:57.873Z,102672.74
2019-02-25T08:24:32.545Z,102671.80
2019-02-25T08:27:22.474Z,102677.07
2019-02-25T08:30:06.995Z,102675.26
2019-02-25T08:32:52.693Z,102669.45
2019-02-25T08:36:09.650Z,102674.68
2019-02-25T08:38:54.155Z,102679.89
2019-02-25T08:41:32.781Z,102685.93
2019-02-25T08:44:23.213Z,102683.17
2019-02-25T08:47:16.595Z,102671.22
2019-02-25T08:49:47.709Z,102684.36
2019-02-25T08:52:15.787Z,102685.10
2019-02-25T08:54:43.823Z,102687.64
2019-02-25T08:57:12.501Z,102684.08
2019-02-25T08:59:40.683Z,102678.27
2019-02-25T09:02:08.973Z,102678.20
2019-02-25T09:04:37.290Z,102671.14
2019-02-25T09:07:05.309Z,102677.27
2019-02-25T09:09:33.324Z,102686.94
2019-02-25T09:12:01.334Z,102687.77
2019-02-25T09:14:29.350Z,102685.58
2019-02-25T09:16:57.446Z,102686.41
2019-02-25T09:19:25.533Z,102677.20
2019-02-25T09:21:53.806Z,102691.78
2019-02-25T09:24:21.782Z,102694.83
2019-02-25T09:26:49.902Z,102697.87
2019-02-25T09:29:17.906Z,102693.91
2019-02-25T09:31:45.933Z,102696.09
2019-02-25T09:34:13.961Z,102689.06
2019-02-25T09:36:42.014Z,102687.70
2019-02-25T09:39:11.362Z,102681.49
2019-02-25T09:41:39.527Z,102680.07
2019-02-25T09:44:07.567Z,102684.48
2019-02-25T09:46:35.650Z,102691.93
2019-02-25T09:49:03.869Z,102687.92
2019-02-25T09:51:31.921Z,102685.64
2019-02-25T09:53:59.957Z,102682.99
2019-02-25T09:56:28.202Z,102682.08
2019-02-25T09:58:56.361Z,102684.17
2019-02-25T10:01:24.589Z,102678.02
2019-02-25T10:03:52.680Z,102678.88
2019-02-25T10:06:20.734Z,102676.18
2019-02-25T10:08:48.988Z,102671.81
2019-02-25T10:11:17.043Z,102677.95
2019-02-25T10:16:33.622Z,102674.34
2019-02-25T10:19:01.624Z,102674.67
2019-02-25T10:21:29.650Z,102679.06
2019-02-25T10:23:57.766Z,102675.89
2019-02-25T10:26:25.833Z,102676.73
2019-02-25T10:28:54.174Z,102676.70
2019-02-25T10:31:22.616Z,102677.86
2019-02-25T10:33:50.899Z,102671.64
2019-02-25T10:36:19.188Z,102666.76
2019-02-25T10:38:47.277Z,102663.59
2019-02-25T10:41:17.180Z,102665.75
2019-02-25T10:43:45.234Z,102666.14
2019-02-25T10:46:15.475Z,102668.38
2019-02-25T10:48:43.248Z,102657.77
2019-02-25T10:51:13.563Z,102659.98
2019-02-25T10:53:43.113Z,102657.69
2019-02-25T10:56:23.852Z,102651.09
2019-02-25T10:58:51.953Z,102649.34
2019-02-25T11:01:22.333Z,102649.76
2019-02-25T11:03:50.486Z,102644.92
2019-02-25T11:06:19.868Z,102641.36
2019-02-25T11:08:52.983Z,102632.08
2019-02-25T11:11:27.058Z,102624.15
2019-02-25T11:13:54.701Z,102625.03
2019-02-25T11:16:22.939Z,102619.28
2019-02-25T11:18:52.769Z,102614.39
2019-02-25T11:21:20.922Z,102612.65
2019-02-25T11:23:49.558Z,102613.06
2019-02-25T11:26:18.517Z,102610.86
2019-02-25T11:28:46.629Z,102608.64
2019-02-25T11:31:15.481Z,102599.80
2019-02-25T11:33:44.506Z,102601.09
2019-02-25T11:36:13.353Z,102598.89
2019-02-25T11:38:42.091Z,102597.06
2019-02-25T11:41:11.280Z,102591.73
2019-02-25T11:43:39.394Z,102585.60
2019-02-25T11:46:07.437Z,102575.82
2019-02-25T11:48:35.746Z,102571.38
2019-02-25T11:51:04.084Z,102568.72
2019-02-25T11:53:32.088Z,102561.20
2019-02-25T11:56:00.026Z,102555.87
2019-02-25T11:58:28.067Z,102554.55
2019-02-25T12:00:56.110Z,102552.30
2019-02-25T12:03:24.181Z,102540.78
2019-02-25T12:05:52.643Z,102535.00
2019-02-25T12:08:20.937Z,102534.11
2019-02-25T12:10:49.122Z,102527.45
2019-02-25T12:13:17.125Z,102525.69
2019-02-25T12:15:45.107Z,102523.00
2019-02-25T12:18:13.297Z,102521.64
2019-02-25T12:20:41.578Z,102515.90
2019-02-25T12:23:09.563Z,102513.19
2019-02-25T12:25:38.159Z,102497.33
2019-02-25T12:28:06.613Z,102488.03
2019-02-25T12:30:34.894Z,102484.98
2019-02-25T12:33:03.209Z,102495.55
2019-02-25T12:35:31.369Z,102485.33
2019-02-25T12:37:59.326Z,102483.11
2019-02-25T12:40:27.366Z,102479.14
2019-02-25T12:42:55.605Z,102467.16
2019-02-25T12:45:23.691Z,102462.27
2019-02-25T12:47:51.860Z,102454.81
2019-02-25T12:50:20.023Z,102460.41
2019-02-25T12:52:48.364Z,102456.00
2019-02-25T12:55:16.345Z,102451.61
2019-02-25T12:57:44.419Z,102453.32
2019-02-25T13:00:13.348Z,102457.28
2019-02-25T13:02:41.487Z,102454.95
2019-02-25T13:05:10.813Z,102450.19
2019-02-25T13:07:38.808Z,102443.66
2019-02-25T13:10:07.508Z,102445.50
2019-02-25T13:12:35.494Z,102451.08
2019-02-25T13:15:12.894Z,102450.67
2019-02-25T13:17:33.390Z,102452.88
2019-02-25T13:20:01.454Z,102447.16
2019-02-25T13:22:29.522Z,102444.14
2019-02-25T13:24:57.698Z,102440.70
2019-02-25T13:27:25.619Z,102443.43
2019-02-25T13:29:53.806Z,102440.70
2019-02-25T13:32:21.907Z,102439.81
2019-02-25T13:34:50.301Z,102433.22
2019-02-25T13:37:18.386Z,102423.95
2019-02-25T13:39:46.606Z,102418.72
2019-02-25T13:42:14.649Z,102416.47
2019-02-25T13:44:42.726Z,102416.47
2019-02-25T13:47:10.659Z,102414.77
2019-02-25T13:49:38.700Z,102420.45
2019-02-25T13:52:07.069Z,102422.66
2019-02-25T13:54:35.105Z,102421.70
2019-02-25T13:57:03.218Z,102426.54
2019-02-25T13:59:31.466Z,102424.70
2019-02-25T14:01:59.658Z,102430.71
2019-02-25T14:04:27.701Z,102431.15
2019-02-25T14:06:55.734Z,102427.58
2019-02-25T14:09:23.867Z,102428.80
2019-02-25T14:11:52.401Z,102432.19
2019-02-25T14:14:20.505Z,102431.62
2019-02-25T14:16:48.709Z,102428.05
2019-02-25T14:19:16.741Z,102430.27
2019-02-25T14:21:44.842Z,102430.19
2019-02-25T14:24:12.818Z,102427.94
2019-02-25T14:26:40.852Z,102417.23
2019-02-25T14:29:09.044Z,102419.41
2019-02-25T14:31:37.133Z,102422.87
2019-02-25T14:34:05.151Z,102425.45
2019-02-25T14:36:33.301Z,102418.29
2019-02-25T14:39:02.249Z,102420.42
2019-02-25T14:41:31.299Z,102416.36
2019-02-25T14:43:59.556Z,102412.25
2019-02-25T14:46:27.784Z,102408.19
2019-02-25T14:48:55.989Z,102410.64
2019-02-25T14:51:24.262Z,102413.58
2019-02-25T14:53:54.755Z,102415.71
2019-02-25T14:56:22.111Z,102417.41
2019-02-25T14:58:50.658Z,102421.31
2019-02-25T15:01:21.000Z,102423.44
2019-02-25T15:03:48.818Z,102433.51
2019-02-25T15:06:17.096Z,102426.86
2019-02-25T15:08:45.362Z,102431.66
2019-02-25T15:11:13.485Z,102432.58
2019-02-25T15:13:41.997Z,102427.22
2019-02-25T15:16:10.206Z,102429.84
2019-02-25T15:18:38.190Z,102419.11
2019-02-25T15:21:07.338Z,102409.31
2019-02-25T15:23:36.079Z,102413.66
2019-02-25T15:26:05.567Z,102417.13
2019-02-25T15:28:34.097Z,102411.76
2019-02-25T15:31:04.474Z,102410.88
2019-02-25T15:33:33.651Z,102410.70
2019-02-25T15:36:02.237Z,102411.05
2019-02-25T15:38:32.475Z,102410.16
2019-02-25T15:41:02.245Z,102410.52
2019-02-25T15:43:30.219Z,102405.95
2019-02-25T15:45:59.951Z,102408.52
2019-02-25T15:48:29.068Z,102400.01
2019-02-25T15:51:00.634Z,102401.73
2019-02-25T15:53:28.217Z,102402.97
2019-02-25T15:55:59.265Z,102399.38
2019-02-25T15:58:26.174Z,102401.06
2019-02-25T16:00:54.582Z,102395.70
2019-02-25T16:03:22.799Z,102395.61
2019-02-25T16:05:54.494Z,102395.20
2019-02-25T16:08:21.292Z,102398.80
2019-02-25T16:10:51.276Z,102391.75
2019-02-25T16:13:20.462Z,102390.66
2019-02-25T16:15:48.502Z,102394.95
2019-02-25T16:18:17.056Z,102396.16
2019-02-25T16:20:46.251Z,102397.34
2019-02-25T16:23:14.775Z,102387.45
2019-02-25T16:25:42.798Z,102399.19
2019-02-25T16:28:13.072Z,102396.22
2019-02-25T16:30:42.312Z,102396.34
2019-02-25T16:33:13.634Z,102401.02
2019-02-25T16:35:43.074Z,102400.73
2019-02-25T16:38:11.240Z,102407.98
2019-02-25T16:40:40.139Z,102406.33
2019-02-25T16:43:10.474Z,102400.36
2019-02-25T16:45:40.202Z,102405.43
2019-02-25T16:48:08.474Z,102403.41
2019-02-25T16:50:36.762Z,102403.08
2019-02-25T16:53:07.935Z,102415.59
2019-02-25T16:55:35.612Z,102409.05
2019-02-25T16:58:04.245Z,102413.11
2019-02-25T17:00:35.456Z,102411.89
2019-02-25T17:03:04.259Z,102404.92
2019-02-25T17:05:33.369Z,102413.00
2019-02-25T17:08:03.418Z,102411.78
2019-02-25T17:10:32.127Z,102417.16
2019-02-25T17:13:01.038Z,102409.74
2019-02-25T17:15:29.061Z,102412.47
2019-02-25T17:18:00.349Z,102416.52
2019-02-25T17:20:28.104Z,102418.80
2019-02-25T17:22:56.690Z,102409.61
2019-02-25T17:25:26.879Z,102413.19
2019-02-25T17:27:55.176Z,102418.56
2019-02-25T17:30:24.074Z,102418.22
2019-02-25T17:32:52.309Z,102419.58
2019-02-25T17:35:21.946Z,102427.61
2019-02-25T17:37:50.805Z,102431.25
2019-02-25T17:40:19.109Z,102431.72
2019-02-25T17:42:49.004Z,102435.32
2019-02-25T17:45:18.237Z,102434.06
2019-02-25T17:47:46.300Z,102438.52
2019-02-25T17:50:15.817Z,102433.72
2019-02-25T17:52:45.180Z,102435.11
2019-02-25T17:55:14.801Z,102431.19
2019-02-25T17:57:42.858Z,102431.22
2019-02-25T18:00:15.061Z,102432.61
2019-02-25T18:02:43.271Z,102430.02
2019-02-25T18:05:12.066Z,102438.89
2019-02-25T18:07:41.998Z,102437.19
2019-02-25T18:10:10.921Z,102440.75
2019-02-25T18:12:39.866Z,102436.86
2019-02-25T18:15:09.911Z,102443.97
2019-02-25T18:17:38.931Z,102437.37
2019-02-25T18:20:09.025Z,102439.60
2019-02-25T18:22:37.338Z,102442.77
2019-02-25T18:25:05.374Z,102440.58
2019-02-25T18:27:35.241Z,102438.42
2019-02-25T18:30:03.505Z,102445.08
2019-02-25T18:32:32.818Z,102451.74
2019-02-25T18:35:01.558Z,102450.88
2019-02-25T18:37:29.789Z,102446.97
2019-02-25T18:39:57.833Z,102442.10
2019-02-25T18:42:26.048Z,102441.27
2019-02-25T18:44:54.082Z,102445.72
2019-02-25T18:47:23.435Z,102449.28
2019-02-25T18:49:52.670Z,102445.81
2019-02-25T18:52:21.791Z,102445.86
2019-02-25T18:54:49.881Z,102448.55
2019-02-25T18:57:18.913Z,102445.03
2019-02-25T18:59:48.403Z,102449.92
2019-02-25T19:02:16.704Z,102450.36
2019-02-25T19:04:45.654Z,102441.14
2019-02-25T19:07:14.070Z,102447.36
2019-02-25T19:09:42.948Z,102449.15
2019-02-25T19:12:12.040Z,102443.02
2019-02-25T19:14:40.186Z,102451.44
2019-02-25T19:17:08.522Z,102447.49
2019-02-25T19:19:38.455Z,102447.95
2019-02-25T19:22:08.266Z,102447.57
2019-02-25T19:24:39.841Z,102444.47
2019-02-25T19:27:07.050Z,102451.58
2019-02-25T19:29:58.647Z,102452.48
2019-02-25T19:32:25.313Z,102457.80
2019-02-25T19:34:54.062Z,102453.00
2019-02-25T19:37:23.267Z,102444.63
2019-02-25T19:39:51.642Z,102444.22
2019-02-25T19:42:20.832Z,102442.02
2019-02-25T19:44:49.680Z,102448.66
2019-02-25T19:47:19.318Z,102448.69
2019-02-25T19:49:47.774Z,102433.73
2019-02-25T19:52:16.808Z,102436.81
2019-02-25T19:54:45.926Z,102435.98
2019-02-25T19:57:18.184Z,102432.89
2019-02-25T19:59:46.298Z,102438.22
2019-02-25T20:02:14.846Z,102439.13
2019-02-25T20:04:45.065Z,102429.49
2019-02-25T20:07:13.276Z,102436.12
2019-02-25T20:09:42.781Z,102435.25
2019-02-25T20:12:10.929Z,102433.52
2019-02-25T20:14:39.001Z,102433.98
2019-02-25T20:17:07.276Z,102430.47
2019-02-25T20:19:35.540Z,102437.12
2019-02-25T20:22:03.497Z,102434.94
2019-02-25T20:24:31.526Z,102426.11
2019-02-25T20:27:00.641Z,102423.48
2019-02-25T20:29:29.559Z,102414.27
2019-02-25T20:31:58.259Z,102412.53
2019-02-25T20:34:27.624Z,102414.30
2019-02-25T20:36:57.841Z,102419.61
2019-02-25T20:39:26.010Z,102411.28
2019-02-25T20:41:56.522Z,102413.04
2019-02-25T20:44:26.233Z,102412.19
2019-02-25T20:47:00.120Z,102417.06
2019-02-25T20:49:31.727Z,102414.88
2019-02-25T20:52:01.107Z,102421.99
2019-02-25T20:54:28.802Z,102428.16
2019-02-25T20:56:57.181Z,102428.19
2019-02-25T20:59:25.799Z,102421.59
2019-02-25T21:01:55.137Z,102416.31
2019-02-25T21:04:23.191Z,102416.31
2019-02-25T21:06:51.450Z,102420.31
2019-02-25T21:09:20.091Z,102427.42
2019-02-25T21:11:48.321Z,102421.69
2019-02-25T21:14:16.838Z,102417.72
2019-02-25T21:16:45.324Z,102416.00
2019-02-25T21:19:15.600Z,102412.03
2019-02-25T21:21:43.065Z,102418.25
2019-02-25T21:24:13.434Z,102424.42
2019-02-25T21:26:41.339Z,102417.41
2019-02-25T21:29:09.803Z,102423.14
2019-02-25T21:31:42.836Z,102423.64
2019-02-25T21:34:08.029Z,102426.74
2019-02-25T21:36:38.060Z,102427.65
2019-02-25T21:39:07.482Z,102430.73
2019-02-25T21:41:37.461Z,102441.78
2019-02-25T21:44:05.328Z,102435.66
2019-02-25T21:46:34.248Z,102435.19
2019-02-25T21:49:03.963Z,102433.03
2019-02-25T21:51:34.585Z,102422.91
2019-02-25T21:54:02.758Z,102422.02
2019-02-25T21:56:31.980Z,102422.89
2019-02-25T21:59:00.130Z,102424.23
2019-02-25T22:01:29.889Z,102419.86
2019-02-25T22:03:58.001Z,102422.05
2019-02-25T22:06:26.845Z,102416.34
2019-02-25T22:08:56.817Z,102417.25
2019-02-25T22:11:25.676Z,102414.61
2019-02-25T22:13:53.866Z,102418.12
2019-02-25T22:16:23.652Z,102416.39
2019-02-25T22:18:53.804Z,102418.64
2019-02-25T22:21:21.653Z,102417.77
2019-02-25T22:23:54.182Z,102423.97
2019-02-25T22:26:19.552Z,102422.20
2019-02-25T22:28:47.525Z,102422.67
2019-02-25T22:31:17.922Z,102430.19
2019-02-25T22:33:45.255Z,102428.00
2019-02-25T22:36:13.381Z,102429.34
2019-02-25T22:38:41.571Z,102435.06
2019-02-25T22:41:09.701Z,102436.39
2019-02-25T22:43:39.157Z,102425.42
2019-02-25T22:46:09.337Z,102423.70
2019-02-25T22:48:38.053Z,102418.86
2019-02-25T22:51:07.332Z,102414.91
2019-02-25T22:53:35.273Z,102406.56
2019-02-25T22:56:03.290Z,102405.27
2019-02-25T22:58:32.133Z,102391.57
2019-02-25T23:01:05.698Z,102383.24
2019-02-25T23:03:33.816Z,102384.17
2019-02-25T23:06:02.214Z,102388.57
2019-02-25T23:08:30.290Z,102388.17
2019-02-25T23:10:58.471Z,102380.67
2019-02-25T23:13:28.107Z,102374.48
2019-02-25T23:15:56.200Z,102372.34
2019-02-25T23:18:25.858Z,102376.75
2019-02-25T23:20:55.488Z,102372.80
2019-02-25T23:23:25.614Z,102368.88
2019-02-25T23:25:54.178Z,102367.59
2019-02-25T23:28:25.412Z,102374.66
2019-02-25T23:30:55.452Z,102375.57
2019-02-25T23:33:24.599Z,102380.88
2019-02-25T23:35:54.108Z,102378.27
2019-02-25T23:38:22.929Z,102381.81
2019-02-25T23:40:51.129Z,102378.70
2019-02-25T23:43:19.333Z,102375.25
2019-02-25T23:45:47.585Z,102383.67
2019-02-25T23:48:15.553Z,102375.76
2019-02-25T23:50:43.679Z,102376.20
2019-02-25T23:53:11.705Z,102373.57
2019-02-25T23:55:43.131Z,102373.15
2019-02-25T23:58:12.360Z,102366.15
